createdAt,value
2023-01-04T00:00:22.969Z,1008.71
2023-01-04T00:01:22.932Z,1008.77
2023-01-04T00:02:23.045Z,1008.76
2023-01-04T00:03:23.099Z,1008.79
2023-01-04T00:04:22.876Z,1008.83
2023-01-04T00:05:22.905Z,1008.83
2023-01-04T00:06:22.867Z,1008.81
2023-01-04T00:07:22.882Z,1008.81
2023-01-04T00:08:22.897Z,1008.77
2023-01-04T00:09:22.980Z,1008.76
2023-01-04T00:10:22.856Z,1008.67
2023-01-04T00:11:22.852Z,1008.77
2023-01-04T00:12:22.841Z,1008.77
2023-01-04T00:13:22.841Z,1008.74
2023-01-04T00:14:22.845Z,1008.74
2023-01-04T00:15:22.826Z,1008.73
2023-01-04T00:16:22.924Z,1008.70
2023-01-04T00:17:22.828Z,1008.66
2023-01-04T00:18:22.809Z,1008.81
2023-01-04T00:19:22.788Z,1008.70
2023-01-04T00:20:22.808Z,1008.66
2023-01-04T00:21:22.776Z,1008.62
2023-01-04T00:22:22.788Z,1008.58
2023-01-04T00:23:22.768Z,1008.51
2023-01-04T00:24:22.777Z,1008.51
2023-01-04T00:25:22.787Z,1008.44
2023-01-04T00:26:22.768Z,1008.47
2023-01-04T00:27:22.768Z,1008.44
2023-01-04T00:28:22.735Z,1008.42
2023-01-04T00:29:22.766Z,1008.45
2023-01-04T00:30:22.724Z,1008.42
2023-01-04T00:31:22.996Z,1008.34
2023-01-04T00:32:22.738Z,1008.36
2023-01-04T00:33:22.716Z,1008.37
2023-01-04T00:34:22.708Z,1008.29
2023-01-04T00:35:44.840Z,1008.30
2023-01-04T00:36:24.708Z,1008.29
2023-01-04T00:37:22.702Z,1008.27
2023-01-04T00:38:22.701Z,1008.25
2023-01-04T00:39:22.691Z,1008.24
2023-01-04T00:40:22.662Z,1008.22
2023-01-04T00:41:56.960Z,1008.20
2023-01-04T00:42:24.666Z,1008.21
2023-01-04T00:43:22.649Z,1008.27
2023-01-04T00:44:22.638Z,1008.16
2023-01-04T00:45:22.658Z,1008.11
2023-01-04T00:46:22.640Z,1008.04
2023-01-04T00:47:22.645Z,1008.02
2023-01-04T00:48:22.627Z,1007.97
2023-01-04T00:49:22.652Z,1008.00
2023-01-04T00:50:22.627Z,1007.96
2023-01-04T00:51:22.605Z,1007.91
2023-01-04T00:52:22.589Z,1008.00
2023-01-04T00:53:22.597Z,1007.98
2023-01-04T00:54:22.576Z,1008.03
2023-01-04T00:55:22.634Z,1007.87
2023-01-04T00:56:22.573Z,1007.91
2023-01-04T00:57:22.575Z,1007.90
2023-01-04T00:58:22.576Z,1007.90
2023-01-04T00:59:22.584Z,1007.93
2023-01-04T01:00:22.590Z,1007.90
2023-01-04T01:01:23.547Z,1007.92
2023-01-04T01:02:22.843Z,1007.91
2023-01-04T01:03:22.730Z,1007.89
2023-01-04T01:04:22.736Z,1007.94
2023-01-04T01:05:22.524Z,1007.94
2023-01-04T01:06:22.531Z,1007.87
2023-01-04T01:07:22.551Z,1007.90
2023-01-04T01:08:22.500Z,1007.91
2023-01-04T01:09:22.546Z,1007.92
2023-01-04T01:10:22.499Z,1007.87
2023-01-04T01:11:22.515Z,1007.88
2023-01-04T01:12:22.509Z,1007.88
2023-01-04T01:13:22.476Z,1007.85
2023-01-04T01:14:22.489Z,1007.87
2023-01-04T01:15:22.467Z,1007.80
2023-01-04T01:16:44.526Z,1007.80
2023-01-04T01:17:24.459Z,1007.87
2023-01-04T01:18:22.483Z,1007.80
2023-01-04T01:19:22.494Z,1007.81
2023-01-04T01:20:22.445Z,1007.83
2023-01-04T01:21:22.432Z,1007.72
2023-01-04T01:22:22.419Z,1007.83
2023-01-04T01:23:22.441Z,1007.78
2023-01-04T01:24:22.415Z,1007.84
2023-01-04T01:25:22.420Z,1007.82
2023-01-04T01:26:22.432Z,1007.78
2023-01-04T01:27:22.396Z,1007.77
2023-01-04T01:28:22.418Z,1007.82
2023-01-04T01:29:22.387Z,1007.76
2023-01-04T01:30:22.389Z,1007.80
2023-01-04T01:31:22.398Z,1007.82
2023-01-04T01:32:22.363Z,1007.75
2023-01-04T01:33:22.387Z,1007.80
2023-01-04T01:34:22.377Z,1007.78
2023-01-04T01:35:22.344Z,1007.76
2023-01-04T01:36:22.348Z,1007.76
2023-01-04T01:37:22.339Z,1007.71
2023-01-04T01:38:22.320Z,1007.78
2023-01-04T01:39:22.365Z,1007.76
2023-01-04T01:40:22.344Z,1007.77
2023-01-04T01:41:22.314Z,1007.82
2023-01-04T01:42:22.338Z,1007.74
2023-01-04T01:43:22.300Z,1007.74
2023-01-04T01:44:22.318Z,1007.77
2023-01-04T01:45:22.309Z,1007.76
2023-01-04T01:46:23.169Z,1007.75
2023-01-04T01:47:22.279Z,1007.73
2023-01-04T01:48:22.282Z,1007.73
2023-01-04T01:49:22.274Z,1007.72
2023-01-04T01:50:22.322Z,1007.68
2023-01-04T01:51:22.259Z,1007.65
2023-01-04T01:52:22.242Z,1007.64
2023-01-04T01:53:22.250Z,1007.65
2023-01-04T01:54:22.238Z,1007.54
2023-01-04T01:55:22.249Z,1007.57
2023-01-04T01:56:22.235Z,1007.56
2023-01-04T01:57:22.212Z,1007.49
2023-01-04T01:58:22.225Z,1007.53
2023-01-04T01:59:22.205Z,1007.56
2023-01-04T02:00:22.197Z,1007.54
2023-01-04T02:01:22.299Z,1007.49
2023-01-04T02:02:22.456Z,1007.47
2023-01-04T02:03:22.286Z,1007.49
2023-01-04T02:04:22.187Z,1007.46
2023-01-04T02:05:22.189Z,1007.37
2023-01-04T02:06:22.165Z,1007.38
2023-01-04T02:07:22.163Z,1007.31
2023-01-04T02:08:22.147Z,1007.37
2023-01-04T02:09:22.156Z,1007.33
2023-01-04T02:10:22.216Z,1007.26
2023-01-04T02:11:22.136Z,1007.19
2023-01-04T02:12:22.155Z,1007.30
2023-01-04T02:13:22.114Z,1007.29
2023-01-04T02:14:22.155Z,1007.33
2023-01-04T02:15:22.113Z,1007.33
2023-01-04T02:16:22.234Z,1007.30
2023-01-04T02:17:22.125Z,1007.32
2023-01-04T02:18:22.142Z,1007.19
2023-01-04T02:19:22.099Z,1007.17
2023-01-04T02:20:22.082Z,1007.13
2023-01-04T02:21:22.127Z,1007.14
2023-01-04T02:22:22.074Z,1007.15
2023-01-04T02:23:22.086Z,1007.13
2023-01-04T02:24:22.062Z,1007.11
2023-01-04T02:25:22.055Z,1007.10
2023-01-04T02:26:22.066Z,1007.05
2023-01-04T02:27:22.069Z,1007.00
2023-01-04T02:28:22.075Z,1007.02
2023-01-04T02:29:22.013Z,1006.95
2023-01-04T02:30:22.082Z,1006.97
2023-01-04T02:31:22.143Z,1007.02
2023-01-04T02:32:22.063Z,1006.93
2023-01-04T02:33:22.014Z,1006.89
2023-01-04T02:34:21.996Z,1006.89
2023-01-04T02:35:22.007Z,1006.86
2023-01-04T02:36:21.997Z,1006.76
2023-01-04T02:37:22.008Z,1006.70
2023-01-04T02:38:21.993Z,1006.71
2023-01-04T02:39:21.977Z,1006.78
2023-01-04T02:40:21.956Z,1006.69
2023-01-04T02:41:21.968Z,1006.58
2023-01-04T02:42:21.955Z,1006.56
2023-01-04T02:43:21.955Z,1006.59
2023-01-04T02:44:21.936Z,1006.49
2023-01-04T02:45:21.938Z,1006.40
2023-01-04T02:46:22.017Z,1006.37
2023-01-04T02:47:21.912Z,1006.32
2023-01-04T02:48:21.948Z,1006.38
2023-01-04T02:49:21.911Z,1006.36
2023-01-04T02:50:21.907Z,1006.27
2023-01-04T02:51:21.904Z,1006.32
2023-01-04T02:52:21.892Z,1006.25
2023-01-04T02:53:21.959Z,1006.27
2023-01-04T02:54:21.893Z,1006.21
2023-01-04T02:55:21.901Z,1006.23
2023-01-04T02:56:21.882Z,1006.19
2023-01-04T02:57:21.875Z,1006.22
2023-01-04T02:58:21.873Z,1006.19
2023-01-04T02:59:21.865Z,1006.25
2023-01-04T03:00:21.849Z,1006.17
2023-01-04T03:01:22.001Z,1006.20
2023-01-04T03:02:22.074Z,1006.12
2023-01-04T03:03:21.986Z,1006.18
2023-01-04T03:04:21.857Z,1006.21
2023-01-04T03:05:21.816Z,1006.13
2023-01-04T03:06:21.881Z,1006.00
2023-01-04T03:07:21.820Z,1006.14
2023-01-04T03:08:21.832Z,1006.04
2023-01-04T03:09:21.835Z,1006.04
2023-01-04T03:10:21.795Z,1006.01
2023-01-04T03:11:21.786Z,1005.94
2023-01-04T03:12:21.775Z,1005.98
2023-01-04T03:13:21.804Z,1005.95
2023-01-04T03:14:31.608Z,1005.89
2023-01-04T03:15:22.768Z,1005.90
2023-01-04T03:16:21.842Z,1005.89
2023-01-04T03:17:21.755Z,1005.85
2023-01-04T03:18:21.746Z,1005.83
2023-01-04T03:19:21.745Z,1005.82
2023-01-04T03:20:21.747Z,1005.86
2023-01-04T03:21:21.735Z,1005.80
2023-01-04T03:22:21.713Z,1005.66
2023-01-04T03:23:21.719Z,1005.67
2023-01-04T03:24:21.714Z,1005.67
2023-01-04T03:25:21.698Z,1005.59
2023-01-04T03:26:21.695Z,1005.54
2023-01-04T03:27:21.683Z,1005.59
2023-01-04T03:28:21.705Z,1005.56
2023-01-04T03:29:21.697Z,1005.59
2023-01-04T03:30:21.680Z,1005.48
2023-01-04T03:31:21.710Z,1005.39
2023-01-04T03:32:21.657Z,1005.54
2023-01-04T03:33:21.653Z,1005.37
2023-01-04T03:34:21.649Z,1005.42
2023-01-04T03:35:21.660Z,1005.45
2023-01-04T03:36:21.628Z,1005.44
2023-01-04T03:37:21.663Z,1005.42
2023-01-04T03:38:21.628Z,1005.41
2023-01-04T03:39:21.608Z,1005.40
2023-01-04T03:40:21.620Z,1005.42
2023-01-04T03:41:21.664Z,1005.34
2023-01-04T03:42:21.610Z,1005.37
2023-01-04T03:43:21.602Z,1005.33
2023-01-04T03:44:21.606Z,1005.38
2023-01-04T03:45:21.616Z,1005.37
2023-01-04T03:46:21.671Z,1005.36
2023-01-04T03:47:21.581Z,1005.31
2023-01-04T03:48:21.611Z,1005.31
2023-01-04T03:49:21.552Z,1005.31
2023-01-04T03:50:21.549Z,1005.32
2023-01-04T03:51:21.550Z,1005.22
2023-01-04T03:52:21.567Z,1005.24
2023-01-04T03:53:22.099Z,1005.25
2023-01-04T03:54:21.562Z,1005.22
2023-01-04T03:55:21.572Z,1005.20
2023-01-04T03:56:21.519Z,1005.16
2023-01-04T03:57:21.544Z,1005.10
2023-01-04T03:58:21.517Z,1005.14
2023-01-04T03:59:21.516Z,1005.07
2023-01-04T04:00:21.510Z,1005.12
2023-01-04T04:01:21.620Z,1005.04
2023-01-04T04:02:21.545Z,1005.11
2023-01-04T04:03:22.537Z,1005.01
2023-01-04T04:04:21.569Z,1005.07
2023-01-04T04:05:21.477Z,1004.97
2023-01-04T04:06:21.464Z,1004.98
2023-01-04T04:07:21.465Z,1005.02
2023-01-04T04:08:21.463Z,1004.88
2023-01-04T04:09:21.452Z,1004.94
2023-01-04T04:10:21.449Z,1004.89
2023-01-04T04:11:21.444Z,1004.90
2023-01-04T04:12:21.451Z,1004.83
2023-01-04T04:13:21.441Z,1004.82
2023-01-04T04:14:21.454Z,1004.84
2023-01-04T04:15:21.411Z,1004.90
2023-01-04T04:16:21.471Z,1004.78
2023-01-04T04:17:21.395Z,1004.75
2023-01-04T04:18:21.410Z,1004.73
2023-01-04T04:19:21.390Z,1004.70
2023-01-04T04:20:21.392Z,1004.67
2023-01-04T04:21:21.370Z,1004.73
2023-01-04T04:22:21.365Z,1004.69
2023-01-04T04:23:21.370Z,1004.64
2023-01-04T04:24:21.379Z,1004.70
2023-01-04T04:25:21.351Z,1004.60
2023-01-04T04:26:21.374Z,1004.60
2023-01-04T04:27:21.337Z,1004.59
2023-01-04T04:28:21.329Z,1004.65
2023-01-04T04:29:21.333Z,1004.61
2023-01-04T04:30:21.336Z,1004.67
2023-01-04T04:31:21.358Z,1004.65
2023-01-04T04:32:21.315Z,1004.58
2023-01-04T04:33:21.308Z,1004.59
2023-01-04T04:34:21.348Z,1004.61
2023-01-04T04:35:21.314Z,1004.48
2023-01-04T04:36:21.292Z,1004.58
2023-01-04T04:37:21.285Z,1004.55
2023-01-04T04:38:21.285Z,1004.55
2023-01-04T04:39:21.299Z,1004.55
2023-01-04T04:40:21.276Z,1004.57
2023-01-04T04:41:21.273Z,1004.59
2023-01-04T04:42:21.279Z,1004.60
2023-01-04T04:43:21.255Z,1004.45
2023-01-04T04:44:21.271Z,1004.58
2023-01-04T04:45:21.237Z,1004.55
2023-01-04T04:46:21.320Z,1004.48
2023-01-04T04:47:21.220Z,1004.49
2023-01-04T04:48:21.219Z,1004.45
2023-01-04T04:49:21.220Z,1004.48
2023-01-04T04:50:21.244Z,1004.50
2023-01-04T04:51:21.223Z,1004.50
2023-01-04T04:52:21.191Z,1004.44
2023-01-04T04:53:21.223Z,1004.46
2023-01-04T04:54:21.210Z,1004.45
2023-01-04T04:55:21.207Z,1004.48
2023-01-04T04:56:21.171Z,1004.35
2023-01-04T04:57:21.179Z,1004.41
2023-01-04T04:58:21.183Z,1004.43
2023-01-04T04:59:21.172Z,1004.40
2023-01-04T05:00:21.171Z,1004.39
2023-01-04T05:01:21.409Z,1004.38
2023-01-04T05:02:21.327Z,1004.40
2023-01-04T05:03:21.190Z,1004.30
2023-01-04T05:04:21.203Z,1004.45
2023-01-04T05:05:21.139Z,1004.36
2023-01-04T05:06:21.127Z,1004.32
2023-01-04T05:07:21.139Z,1004.35
2023-01-04T05:08:22.117Z,1004.44
2023-01-04T05:09:21.113Z,1004.26
2023-01-04T05:10:21.124Z,1004.38
2023-01-04T05:11:21.089Z,1004.41
2023-01-04T05:12:21.099Z,1004.27
2023-01-04T05:13:21.083Z,1004.29
2023-01-04T05:14:21.084Z,1004.27
2023-01-04T05:15:21.096Z,1004.16
2023-01-04T05:16:21.112Z,1004.33
2023-01-04T05:17:21.600Z,1004.23
2023-01-04T05:18:21.066Z,1004.16
2023-01-04T05:19:21.048Z,1004.26
2023-01-04T05:20:21.045Z,1004.20
2023-01-04T05:21:21.068Z,1004.19
2023-01-04T05:22:21.079Z,1004.25
2023-01-04T05:23:21.048Z,1004.27
2023-01-04T05:24:21.017Z,1004.11
2023-01-04T05:25:20.997Z,1004.22
2023-01-04T05:26:21.012Z,1004.18
2023-01-04T05:27:21.000Z,1004.18
2023-01-04T05:28:21.010Z,1004.19
2023-01-04T05:29:20.996Z,1004.22
2023-01-04T05:30:20.982Z,1004.29
2023-01-04T05:31:21.016Z,1004.26
2023-01-04T05:32:20.963Z,1004.20
2023-01-04T05:33:20.964Z,1004.12
2023-01-04T05:34:22.403Z,1004.15
2023-01-04T05:35:21.998Z,1004.18
2023-01-04T05:36:21.003Z,1004.19
2023-01-04T05:37:20.944Z,1004.06
2023-01-04T05:38:20.931Z,1004.07
2023-01-04T05:39:20.923Z,1004.06
2023-01-04T05:40:20.909Z,1004.04
2023-01-04T05:41:20.935Z,1004.10
2023-01-04T05:42:20.907Z,1004.03
2023-01-04T05:43:20.899Z,1004.09
2023-01-04T05:44:20.895Z,1004.04
2023-01-04T05:45:46.919Z,1003.96
2023-01-04T05:46:21.022Z,1003.94
2023-01-04T05:47:21.600Z,1003.86
2023-01-04T05:48:20.873Z,1003.95
2023-01-04T05:49:20.851Z,1003.89
2023-01-04T05:50:20.844Z,1003.78
2023-01-04T05:51:20.889Z,1003.91
2023-01-04T05:52:20.837Z,1003.91
2023-01-04T05:53:20.844Z,1003.87
2023-01-04T05:54:21.627Z,1003.81
2023-01-04T05:55:21.832Z,1003.85
2023-01-04T05:56:20.825Z,1003.90
2023-01-04T05:57:20.798Z,1003.84
2023-01-04T05:58:20.809Z,1003.88
2023-01-04T05:59:20.796Z,1003.79
2023-01-04T06:00:20.787Z,1003.76
2023-01-04T06:01:20.829Z,1003.73
2023-01-04T06:02:20.847Z,1003.75
2023-01-04T06:03:20.966Z,1003.72
2023-01-04T06:04:20.768Z,1003.70
2023-01-04T06:05:20.764Z,1003.60
2023-01-04T06:06:20.756Z,1003.64
2023-01-04T06:07:20.785Z,1003.60
2023-01-04T06:08:20.758Z,1003.62
2023-01-04T06:09:20.750Z,1003.62
2023-01-04T06:10:20.729Z,1003.63
2023-01-04T06:11:27.232Z,1003.44
2023-01-04T06:12:22.732Z,1003.67
2023-01-04T06:13:20.714Z,1003.58
2023-01-04T06:14:20.713Z,1003.61
2023-01-04T06:15:20.711Z,1003.62
2023-01-04T06:16:20.736Z,1003.69
2023-01-04T06:17:20.733Z,1003.67
2023-01-04T06:18:20.713Z,1003.80
2023-01-04T06:19:20.677Z,1003.77
2023-01-04T06:20:20.672Z,1003.71
2023-01-04T06:21:20.679Z,1003.74
2023-01-04T06:22:20.669Z,1003.82
2023-01-04T06:23:20.727Z,1003.87
2023-01-04T06:24:20.644Z,1003.86
2023-01-04T06:25:20.649Z,1003.74
2023-01-04T06:26:20.661Z,1003.72
2023-01-04T06:27:20.637Z,1003.72
2023-01-04T06:28:20.658Z,1003.62
2023-01-04T06:29:20.620Z,1003.62
2023-01-04T06:30:20.610Z,1003.54
2023-01-04T06:31:20.674Z,1003.44
2023-01-04T06:32:20.604Z,1003.44
2023-01-04T06:33:20.596Z,1003.33
2023-01-04T06:34:25.255Z,1003.39
2023-01-04T06:35:21.578Z,1003.42
2023-01-04T06:36:20.585Z,1003.28
2023-01-04T06:37:20.610Z,1003.17
2023-01-04T06:38:20.557Z,1003.25
2023-01-04T06:39:20.549Z,1003.17
2023-01-04T06:40:20.562Z,1003.13
2023-01-04T06:41:20.553Z,1003.10
2023-01-04T06:42:20.533Z,1003.11
2023-01-04T06:43:20.533Z,1003.00
2023-01-04T06:44:20.554Z,1002.98
2023-01-04T06:45:20.522Z,1002.94
2023-01-04T06:46:20.588Z,1003.04
2023-01-04T06:47:20.522Z,1002.97
2023-01-04T06:48:20.515Z,1003.01
2023-01-04T06:49:20.498Z,1003.06
2023-01-04T06:50:20.494Z,1002.96
2023-01-04T06:51:20.490Z,1003.06
2023-01-04T06:52:20.491Z,1003.05
2023-01-04T06:53:20.492Z,1003.12
2023-01-04T06:54:20.491Z,1003.06
2023-01-04T06:55:20.475Z,1003.06
2023-01-04T06:56:20.458Z,1003.00
2023-01-04T06:57:20.458Z,1003.06
2023-01-04T06:58:20.487Z,1003.08
2023-01-04T06:59:20.429Z,1003.00
2023-01-04T07:00:20.436Z,1002.88
2023-01-04T07:01:20.490Z,1002.92
2023-01-04T07:02:20.570Z,1002.90
2023-01-04T07:03:20.465Z,1002.96
2023-01-04T07:04:20.511Z,1003.03
2023-01-04T07:05:20.412Z,1002.93
2023-01-04T07:06:20.406Z,1002.98
2023-01-04T07:07:20.393Z,1002.99
2023-01-04T07:08:20.398Z,1003.17
2023-01-04T07:09:20.408Z,1003.08
2023-01-04T07:10:20.379Z,1003.09
2023-01-04T07:11:20.407Z,1003.03
2023-01-04T07:12:20.354Z,1002.96
2023-01-04T07:13:21.357Z,1003.13
2023-01-04T07:14:20.366Z,1003.06
2023-01-04T07:15:43.260Z,1003.08
2023-01-04T07:16:21.381Z,1003.15
2023-01-04T07:17:24.907Z,1003.11
2023-01-04T07:18:22.345Z,1003.18
2023-01-04T07:19:20.320Z,1003.11
2023-01-04T07:20:20.314Z,1003.12
2023-01-04T07:21:20.315Z,1003.08
2023-01-04T07:22:20.303Z,1003.03
2023-01-04T07:23:20.314Z,1002.98
2023-01-04T07:24:23.467Z,1003.05
2023-01-04T07:25:21.283Z,1002.94
2023-01-04T07:26:20.276Z,1003.04
2023-01-04T07:27:20.270Z,1002.96
2023-01-04T07:28:20.304Z,1003.02
2023-01-04T07:29:20.272Z,1002.96
2023-01-04T07:30:20.261Z,1002.96
2023-01-04T07:31:20.288Z,1002.93
2023-01-04T07:32:20.263Z,1002.95
2023-01-04T07:33:20.261Z,1002.88
2023-01-04T07:34:20.322Z,1002.99
2023-01-04T07:35:20.223Z,1002.95
2023-01-04T07:36:20.266Z,1002.99
2023-01-04T07:37:20.221Z,1002.94
2023-01-04T07:38:20.209Z,1002.92
2023-01-04T07:39:20.232Z,1002.87
2023-01-04T07:40:20.196Z,1002.88
2023-01-04T07:41:20.211Z,1002.84
2023-01-04T07:42:20.178Z,1002.84
2023-01-04T07:43:25.994Z,1002.82
2023-01-04T07:44:22.231Z,1002.87
2023-01-04T07:45:20.178Z,1002.74
2023-01-04T07:46:20.225Z,1002.74
2023-01-04T07:47:20.186Z,1002.66
2023-01-04T07:48:20.148Z,1002.73
2023-01-04T07:49:20.159Z,1002.80
2023-01-04T07:50:20.142Z,1002.74
2023-01-04T07:51:20.139Z,1002.73
2023-01-04T07:52:20.115Z,1002.84
2023-01-04T07:53:21.235Z,1002.82
2023-01-04T07:54:20.130Z,1002.75
2023-01-04T07:55:20.117Z,1002.78
2023-01-04T07:56:20.110Z,1002.79
2023-01-04T07:57:20.110Z,1002.80
2023-01-04T07:58:20.117Z,1002.79
2023-01-04T07:59:20.102Z,1002.79
2023-01-04T08:00:20.087Z,1002.72
2023-01-04T08:01:20.158Z,1002.71
2023-01-04T08:02:20.211Z,1002.63
2023-01-04T08:03:20.056Z,1002.65
2023-01-04T08:04:20.119Z,1002.66
2023-01-04T08:05:20.208Z,1002.56
2023-01-04T08:06:20.048Z,1002.70
2023-01-04T08:07:20.074Z,1002.75
2023-01-04T08:08:20.043Z,1002.53
2023-01-04T08:09:20.071Z,1002.65
2023-01-04T08:10:20.041Z,1002.70
2023-01-04T08:11:20.041Z,1002.75
2023-01-04T08:12:20.014Z,1002.75
2023-01-04T08:13:20.061Z,1002.64
2023-01-04T08:14:20.017Z,1002.69
2023-01-04T08:15:20.010Z,1002.73
2023-01-04T08:16:20.093Z,1002.75
2023-01-04T08:17:19.977Z,1002.63
2023-01-04T08:18:20.648Z,1002.71
2023-01-04T08:19:20.983Z,1002.69
2023-01-04T08:20:19.975Z,1002.60
2023-01-04T08:21:19.958Z,1002.70
2023-01-04T08:22:19.975Z,1002.75
2023-01-04T08:23:19.940Z,1002.81
2023-01-04T08:24:19.936Z,1002.75
2023-01-04T08:25:19.939Z,1002.81
2023-01-04T08:26:19.936Z,1002.75
2023-01-04T08:27:19.916Z,1002.91
2023-01-04T08:28:19.929Z,1002.74
2023-01-04T08:29:19.980Z,1002.82
2023-01-04T08:30:19.924Z,1002.78
2023-01-04T08:31:19.954Z,1002.63
2023-01-04T08:32:19.898Z,1002.68
2023-01-04T08:33:19.889Z,1002.78
2023-01-04T08:34:19.886Z,1002.66
2023-01-04T08:35:19.903Z,1002.61
2023-01-04T08:36:26.287Z,1002.58
2023-01-04T08:37:21.859Z,1002.59
2023-01-04T08:38:58.040Z,1002.60
2023-01-04T08:39:21.935Z,1002.53
2023-01-04T08:40:19.842Z,1002.60
2023-01-04T08:41:47.271Z,1002.57
2023-01-04T08:42:28.614Z,1002.57
2023-01-04T08:43:21.820Z,1002.52
2023-01-04T08:44:19.847Z,1002.59
2023-01-04T08:45:19.825Z,1002.67
2023-01-04T08:46:19.869Z,1002.71
2023-01-04T08:47:19.835Z,1002.69
2023-01-04T08:48:24.507Z,1002.72
2023-01-04T08:49:20.809Z,1002.64
2023-01-04T08:50:19.801Z,1002.66
2023-01-04T08:51:19.786Z,1002.54
2023-01-04T08:52:19.801Z,1002.49
2023-01-04T08:53:19.774Z,1002.64
2023-01-04T08:54:19.782Z,1002.57
2023-01-04T08:55:23.267Z,1002.57
2023-01-04T08:56:20.745Z,1002.59
2023-01-04T08:57:19.773Z,1002.57
2023-01-04T08:58:19.740Z,1002.64
2023-01-04T08:59:19.743Z,1002.62
2023-01-04T09:00:19.726Z,1002.59
2023-01-04T09:01:19.859Z,1002.52
2023-01-04T09:02:19.884Z,1002.57
2023-01-04T09:03:19.770Z,1002.61
2023-01-04T09:04:19.779Z,1002.54
2023-01-04T09:05:23.018Z,1002.57
2023-01-04T09:06:19.688Z,1002.64
2023-01-04T09:07:19.729Z,1002.52
2023-01-04T09:08:19.703Z,1002.59
2023-01-04T09:09:19.670Z,1002.60
2023-01-04T09:10:19.680Z,1002.54
2023-01-04T09:11:19.665Z,1002.48
2023-01-04T09:12:19.689Z,1002.56
2023-01-04T09:13:19.675Z,1002.40
2023-01-04T09:14:19.644Z,1002.45
2023-01-04T09:15:19.661Z,1002.42
2023-01-04T09:16:19.658Z,1002.41
2023-01-04T09:17:19.672Z,1002.32
2023-01-04T09:18:31.613Z,1002.34
2023-01-04T09:19:22.374Z,1002.27
2023-01-04T09:20:20.621Z,1002.35
2023-01-04T09:21:19.604Z,1002.23
2023-01-04T09:22:19.633Z,1002.33
2023-01-04T09:23:19.615Z,1002.26
2023-01-04T09:24:19.597Z,1002.27
2023-01-04T09:25:19.577Z,1002.22
2023-01-04T09:26:19.589Z,1002.15
2023-01-04T09:27:19.778Z,1002.13
2023-01-04T09:28:19.576Z,1002.20
2023-01-04T09:29:19.572Z,1001.94
2023-01-04T09:30:19.560Z,1002.10
2023-01-04T09:31:19.650Z,1002.06
2023-01-04T09:32:19.568Z,1001.98
2023-01-04T09:33:19.539Z,1002.03
2023-01-04T09:34:19.528Z,1002.18
2023-01-04T09:35:19.535Z,1002.10
2023-01-04T09:36:19.552Z,1002.16
2023-01-04T09:37:19.538Z,1002.16
2023-01-04T09:38:19.515Z,1002.19
2023-01-04T09:39:23.941Z,1002.29
2023-01-04T09:40:20.501Z,1002.13
2023-01-04T09:41:19.504Z,1001.99
2023-01-04T09:42:19.508Z,1001.97
2023-01-04T09:43:21.452Z,1002.07
2023-01-04T09:44:19.484Z,1001.88
2023-01-04T09:45:24.659Z,1001.94
2023-01-04T09:46:21.519Z,1001.77
2023-01-04T09:47:19.485Z,1001.81
2023-01-04T09:48:25.269Z,1001.84
2023-01-04T09:49:21.458Z,1002.01
2023-01-04T09:50:21.095Z,1001.87
2023-01-04T09:51:19.436Z,1001.90
2023-01-04T09:52:19.455Z,1001.94
2023-01-04T09:53:19.467Z,1001.82
2023-01-04T09:54:19.430Z,1001.92
2023-01-04T09:55:37.194Z,1001.88
2023-01-04T09:56:20.409Z,1001.87
2023-01-04T09:57:19.425Z,1001.82
2023-01-04T09:58:19.421Z,1001.89
2023-01-04T09:59:19.410Z,1001.88
2023-01-04T10:00:19.409Z,1001.83
2023-01-04T10:01:19.566Z,1001.74
2023-01-04T10:02:19.531Z,1001.82
2023-01-04T10:03:19.470Z,1001.78
2023-01-04T10:04:19.388Z,1001.72
2023-01-04T10:05:19.387Z,1001.88
2023-01-04T10:06:19.366Z,1001.73
2023-01-04T10:07:19.355Z,1001.69
2023-01-04T10:08:19.345Z,1001.68
2023-01-04T10:09:19.452Z,1001.73
2023-01-04T10:10:19.366Z,1001.72
2023-01-04T10:11:19.333Z,1001.66
2023-01-04T10:12:19.330Z,1001.69
2023-01-04T10:13:19.320Z,1001.74
2023-01-04T10:14:19.360Z,1001.59
2023-01-04T10:15:19.305Z,1001.60
2023-01-04T10:16:30.227Z,1001.59
2023-01-04T10:17:44.417Z,1001.59
2023-01-04T10:20:58.624Z,1001.61
2023-01-04T10:21:31.988Z,1001.36
2023-01-04T10:22:21.267Z,1001.44
2023-01-04T10:23:19.291Z,1001.53
2023-01-04T10:24:19.267Z,1001.41
2023-01-04T10:25:19.261Z,1001.56
2023-01-04T10:26:19.268Z,1001.43
2023-01-04T10:27:19.256Z,1001.47
2023-01-04T10:28:19.255Z,1001.38
2023-01-04T10:29:19.237Z,1001.35
2023-01-04T10:30:19.245Z,1001.40
2023-01-04T10:31:38.391Z,1001.42
2023-01-04T10:32:20.275Z,1001.32
2023-01-04T10:33:19.203Z,1001.33
2023-01-04T10:34:19.453Z,1001.31
2023-01-04T10:35:19.219Z,1001.29
2023-01-04T10:36:19.180Z,1001.40
2023-01-04T10:37:19.198Z,1001.40
2023-01-04T10:38:19.240Z,1001.29
2023-01-04T10:39:19.183Z,1001.30
2023-01-04T10:40:19.191Z,1001.30
2023-01-04T10:41:19.146Z,1001.35
2023-01-04T10:42:19.171Z,1001.22
2023-01-04T10:43:19.144Z,1001.24
2023-01-04T10:44:19.156Z,1001.23
2023-01-04T10:45:19.174Z,1001.14
2023-01-04T10:46:19.166Z,1001.10
2023-01-04T10:47:19.220Z,1001.18
2023-01-04T10:48:19.131Z,1001.18
2023-01-04T10:49:19.167Z,1001.17
2023-01-04T10:50:19.182Z,1001.10
2023-01-04T10:51:19.163Z,1001.21
2023-01-04T10:52:19.101Z,1001.04
2023-01-04T10:53:19.225Z,1001.14
2023-01-04T10:54:19.131Z,1001.16
2023-01-04T10:55:19.143Z,1001.24
2023-01-04T10:56:25.088Z,1001.17
2023-01-04T10:57:20.069Z,1001.12
2023-01-04T10:58:19.086Z,1001.30
2023-01-04T10:59:19.096Z,1001.10
2023-01-04T11:00:19.082Z,1001.11
2023-01-04T11:01:19.260Z,1001.00
2023-01-04T11:02:19.131Z,1001.18
2023-01-04T11:03:19.320Z,1001.13
2023-01-04T11:04:19.081Z,1000.98
2023-01-04T11:05:19.051Z,1001.03
2023-01-04T11:06:19.068Z,1000.98
2023-01-04T11:07:19.095Z,1001.03
2023-01-04T11:08:19.080Z,1001.11
2023-01-04T11:09:24.731Z,1001.08
2023-01-04T11:10:21.002Z,1000.98
2023-01-04T11:11:19.016Z,1000.97
2023-01-04T11:12:18.984Z,1000.93
2023-01-04T11:13:19.077Z,1001.01
2023-01-04T11:14:18.970Z,1000.90
2023-01-04T11:15:19.014Z,1000.92
2023-01-04T11:16:19.111Z,1000.90
2023-01-04T11:17:19.008Z,1000.86
2023-01-04T11:18:18.985Z,1000.81
2023-01-04T11:19:18.937Z,1000.87
2023-01-04T11:20:19.584Z,1000.76
2023-01-04T11:21:18.980Z,1000.84
2023-01-04T11:22:18.949Z,1000.77
2023-01-04T11:23:19.011Z,1000.77
2023-01-04T11:24:34.159Z,1000.80
2023-01-04T11:25:36.941Z,1000.84
2023-01-04T11:26:20.924Z,1000.80
2023-01-04T11:27:22.199Z,1000.75
2023-01-04T11:28:20.887Z,1000.72
2023-01-04T11:29:18.892Z,1000.74
2023-01-04T11:30:18.886Z,1000.78
2023-01-04T11:31:18.955Z,1000.80
2023-01-04T11:32:18.943Z,1000.64
2023-01-04T11:33:18.907Z,1000.62
2023-01-04T11:34:18.869Z,1000.55
2023-01-04T11:35:18.892Z,1000.57
2023-01-04T11:36:18.859Z,1000.49
2023-01-04T11:37:18.906Z,1000.54
2023-01-04T11:38:18.899Z,1000.47
2023-01-04T11:39:18.844Z,1000.54
2023-01-04T11:40:20.665Z,1000.46
2023-01-04T11:41:18.885Z,1000.56
2023-01-04T11:42:18.884Z,1000.55
2023-01-04T11:43:18.851Z,1000.52
2023-01-04T11:44:18.834Z,1000.62
2023-01-04T11:45:18.825Z,1000.59
2023-01-04T11:46:45.273Z,1000.64
2023-01-04T11:47:18.792Z,1000.59
2023-01-04T11:48:18.913Z,1000.71
2023-01-04T11:49:18.806Z,1000.62
2023-01-04T11:50:19.760Z,1000.55
2023-01-04T11:51:18.763Z,1000.57
2023-01-04T11:52:18.832Z,1000.50
2023-01-04T11:53:18.772Z,1000.48
2023-01-04T11:54:18.763Z,1000.51
2023-01-04T11:55:18.739Z,1000.49
2023-01-04T11:56:18.775Z,1000.42
2023-01-04T11:57:18.768Z,1000.33
2023-01-04T11:58:18.724Z,1000.35
2023-01-04T11:59:25.169Z,1000.35
2023-01-04T12:00:20.736Z,1000.37
2023-01-04T12:01:18.792Z,1000.27
2023-01-04T12:02:35.150Z,1000.31
2023-01-04T12:03:20.720Z,1000.22
2023-01-04T12:04:18.710Z,1000.19
2023-01-04T12:05:22.801Z,1000.17
2023-01-04T12:06:20.673Z,1000.15
2023-01-04T12:07:18.696Z,1000.11